Time;durP1;ratioP1;P1;durP2;ratioP2;P2;SDS_P1;SDS_P2;PMS_P1;PMS_P2;Temp;Humidity;BMP_temperature;BMP_pressure;BME280_temperature;BME280_humidity;BME280_pressure;Samples;Min_cycle;Max_cycle;Signal;HPM_P1;HPM_P2
2021/04/17 00:01:09;;;;;;;10.82;6.82;;;4.30;99.90;;;;;;5029545;28;20375;-74
2021/04/17 00:03:35;;;;;;;12.63;7.57;;;4.30;99.90;;;;;;5029458;28;20021;-74
2021/04/17 00:06:00;;;;;;;10.50;7.03;;;4.30;99.90;;;;;;5029458;28;20048;-74
2021/04/17 00:08:26;;;;;;;12.00;7.60;;;4.30;99.90;;;;;;5029778;28;20033;-74
2021/04/17 00:10:52;;;;;;;12.65;7.82;;;4.30;99.90;;;;;;5028172;28;20025;-72
2021/04/17 00:13:17;;;;;;;13.50;8.43;;;4.20;99.90;;;;;;5029693;28;20021;-74
2021/04/17 00:15:43;;;;;;;12.30;7.53;;;4.20;99.90;;;;;;5028360;28;20025;-74
2021/04/17 00:18:09;;;;;;;11.55;7.90;;;4.20;99.90;;;;;;5029164;28;20025;-72
2021/04/17 00:20:34;;;;;;;11.90;7.45;;;4.20;99.90;;;;;;5029138;28;20540;-74
2021/04/17 00:23:00;;;;;;;12.48;7.53;;;4.10;99.90;;;;;;5029118;28;20539;-74
2021/04/17 00:25:26;;;;;;;10.52;6.93;;;4.10;99.90;;;;;;5029183;28;20049;-74
2021/04/17 00:27:52;;;;;;;11.65;7.38;;;4.10;99.90;;;;;;5029169;28;20075;-75
2021/04/17 00:30:17;;;;;;;11.40;7.28;;;4.10;99.90;;;;;;5053454;22;20041;-73
2021/04/17 00:32:43;;;;;;;10.10;6.38;;;4.00;99.90;;;;;;5027795;28;20018;-73
2021/04/17 00:35:09;;;;;;;9.95;7.28;;;3.90;99.90;;;;;;5029106;28;20053;-73
2021/04/17 00:37:35;;;;;;;11.38;7.05;;;3.90;99.90;;;;;;5027803;28;20052;-73
2021/04/17 00:40:00;;;;;;;11.55;7.22;;;3.80;99.90;;;;;;5029198;28;20021;-73
2021/04/17 00:42:26;;;;;;;11.45;7.40;;;3.80;99.90;;;;;;5027901;28;20405;-73
2021/04/17 00:44:52;;;;;;;13.23;7.47;;;3.70;99.90;;;;;;5033120;28;20500;-72
2021/04/17 00:47:17;;;;;;;12.50;7.70;;;3.70;99.90;;;;;;5033251;28;20100;-72
2021/04/17 00:49:43;;;;;;;12.57;7.97;;;3.70;99.90;;;;;;5032841;28;20128;-72
2021/04/17 00:52:09;;;;;;;10.90;7.30;;;3.60;99.90;;;;;;5032907;28;20043;-72
2021/04/17 00:54:34;;;;;;;12.52;7.55;;;3.60;99.90;;;;;;5031538;28;20061;-72
2021/04/17 00:57:00;;;;;;;12.52;7.40;;;3.60;99.90;;;;;;5032616;28;20025;-72
2021/04/17 00:59:26;;;;;;;11.63;8.07;;;3.60;99.90;;;;;;5032693;28;20025;-72
2021/04/17 01:01:51;;;;;;;11.27;7.57;;;3.60;99.90;;;;;;5032734;28;20022;-72
2021/04/17 01:04:20;;;;;;;12.68;7.63;;;3.50;99.90;;;;;;5031677;28;20091;-72
2021/04/17 01:07:13;;;;;;;12.93;6.93;;;3.50;99.90;;;;;;5031603;28;20479;-72
2021/04/17 01:09:47;;;;;;;10.30;6.90;;;3.40;99.90;;;;;;5033080;28;20021;-72
2021/04/17 01:12:19;;;;;;;14.13;8.23;;;3.30;99.90;;;;;;5031441;28;20040;-72
2021/04/17 01:14:47;;;;;;;12.70;8.25;;;3.30;99.90;;;;;;5031189;28;20029;-72
2021/04/17 01:17:14;;;;;;;11.68;7.22;;;3.30;99.90;;;;;;5032421;28;20103;-72
2021/04/17 01:19:39;;;;;;;12.18;7.53;;;3.30;99.90;;;;;;5032300;28;20067;-74
2021/04/17 01:22:14;;;;;;;13.35;7.80;;;3.20;99.90;;;;;;5032416;28;20454;-73
2021/04/17 01:24:43;;;;;;;14.63;7.80;;;3.20;99.90;;;;;;5032394;28;20509;-73
2021/04/17 01:27:12;;;;;;;13.55;7.97;;;3.20;99.90;;;;;;5030928;28;20030;-73
2021/04/17 01:29:41;;;;;;;13.80;8.07;;;3.20;99.90;;;;;;5030967;28;20067;-73
2021/04/17 01:32:13;;;;;;;14.98;9.05;;;3.20;99.90;;;;;;5032212;28;20013;-73
2021/04/17 01:34:42;;;;;;;13.10;7.93;;;3.20;99.90;;;;;;5032190;28;20454;-73
2021/04/17 01:37:10;;;;;;;14.77;8.35;;;3.20;99.90;;;;;;5032080;28;20033;-73
2021/04/17 01:39:38;;;;;;;14.85;9.25;;;3.10;99.90;;;;;;5030719;28;20021;-73
2021/04/17 01:42:08;;;;;;;13.65;8.98;;;3.10;99.90;;;;;;5031962;28;20097;-73
2021/04/17 01:44:39;;;;;;;13.63;8.52;;;3.10;99.90;;;;;;5032406;28;20022;-73
2021/04/17 01:47:11;;;;;;;13.88;8.20;;;3.10;99.90;;;;;;5032461;28;20017;-73
2021/04/17 01:49:46;;;;;;;14.40;8.68;;;3.10;99.90;;;;;;5030550;28;20398;-73
2021/04/17 01:52:14;;;;;;;15.35;9.43;;;3.00;99.90;;;;;;5031813;28;20057;-74
2021/04/17 01:54:44;;;;;;;15.05;9.40;;;3.00;99.90;;;;;;5029823;28;20403;-74
2021/04/17 01:57:17;;;;;;;15.43;9.68;;;3.00;99.90;;;;;;5031695;28;20482;-73
2021/04/17 01:59:42;;;;;;;16.35;9.57;;;3.00;99.90;;;;;;5030599;28;20053;-73
2021/04/17 02:02:08;;;;;;;15.95;9.65;;;3.00;99.90;;;;;;5031884;28;20402;-74
2021/04/17 02:04:35;;;;;;;18.50;10.00;;;3.00;99.90;;;;;;5031474;28;20068;-73
2021/04/17 02:07:01;;;;;;;16.92;10.25;;;3.00;99.90;;;;;;5031571;28;20100;-74
2021/04/17 02:09:27;;;;;;;15.10;9.48;;;2.90;99.90;;;;;;5030196;28;20022;-73
2021/04/17 02:11:52;;;;;;;19.45;10.73;;;3.00;99.90;;;;;;5031451;28;20071;-73
2021/04/17 02:14:18;;;;;;;15.52;9.80;;;3.00;99.90;;;;;;5031443;28;20040;-73
2021/04/17 02:17:10;;;;;;;16.02;9.85;;;3.00;99.90;;;;;;5031555;28;20029;-73
2021/04/17 02:19:43;;;;;;;16.92;9.95;;;3.00;99.90;;;;;;4990341;28;20502;-74
2021/04/17 02:22:10;;;;;;;16.60;9.77;;;3.00;99.90;;;;;;5030129;28;20025;-73
2021/04/17 02:24:36;;;;;;;19.42;11.20;;;3.00;99.90;;;;;;5029975;28;20048;-73
2021/04/17 02:27:01;;;;;;;18.55;9.98;;;3.00;99.90;;;;;;5029897;28;20490;-73
2021/04/17 02:29:27;;;;;;;17.30;10.43;;;3.00;99.90;;;;;;5031169;28;20039;-73
2021/04/17 02:31:53;;;;;;;17.23;10.98;;;3.00;99.90;;;;;;5031168;28;20036;-73
2021/04/17 02:34:19;;;;;;;16.13;9.77;;;3.00;99.90;;;;;;5029948;28;20095;-73
2021/04/17 02:36:45;;;;;;;17.38;10.68;;;3.00;99.90;;;;;;5029872;28;20026;-73
2021/04/17 02:39:10;;;;;;;16.20;10.65;;;3.00;99.90;;;;;;5029654;28;20086;-73
2021/04/17 02:41:36;;;;;;;15.27;9.43;;;3.00;99.90;;;;;;5029707;28;20430;-73
2021/04/17 02:44:03;;;;;;;17.20;11.10;;;3.00;99.90;;;;;;5030854;28;20064;-73
2021/04/17 02:46:29;;;;;;;16.75;10.35;;;3.00;99.90;;;;;;5029579;28;20047;-73
2021/04/17 02:48:54;;;;;;;18.65;11.02;;;3.10;99.90;;;;;;5029511;28;20124;-73
2021/04/17 02:51:20;;;;;;;18.80;10.85;;;3.10;99.90;;;;;;5030621;28;20060;-73
2021/04/17 02:53:46;;;;;;;16.60;10.50;;;3.00;99.90;;;;;;5030704;28;20025;-73
2021/04/17 02:56:11;;;;;;;16.20;10.52;;;3.10;99.90;;;;;;5030678;28;20545;-73
2021/04/17 02:58:37;;;;;;;16.67;10.60;;;3.00;99.90;;;;;;5030454;28;20160;-72
2021/04/17 03:01:03;;;;;;;14.77;9.85;;;3.10;99.90;;;;;;5030771;28;20025;-72
2021/04/17 03:03:28;;;;;;;17.02;11.35;;;3.10;99.90;;;;;;5030521;28;20025;-72
2021/04/17 03:05:54;;;;;;;17.20;11.07;;;3.10;99.90;;;;;;5029958;28;20033;-72
2021/04/17 03:08:19;;;;;;;20.50;12.65;;;3.00;99.90;;;;;;5029892;28;20025;-72
2021/04/17 03:10:45;;;;;;;15.90;10.23;;;3.00;99.90;;;;;;5028972;28;20117;-73
2021/04/17 03:13:12;;;;;;;15.73;9.80;;;3.00;99.90;;;;;;5030284;28;20029;-72
2021/04/17 03:15:37;;;;;;;17.50;10.95;;;2.90;99.90;;;;;;5030517;28;20029;-73
2021/04/17 03:18:04;;;;;;;19.55;11.18;;;2.90;99.90;;;;;;5030326;28;20025;-72
2021/04/17 03:20:29;;;;;;;21.23;11.60;;;2.90;99.90;;;;;;5030137;28;20033;-72
2021/04/17 03:22:55;;;;;;;17.50;10.30;;;2.80;99.90;;;;;;5030110;28;20017;-72
2021/04/17 03:25:21;;;;;;;19.02;11.25;;;2.80;99.90;;;;;;5028889;28;20520;-72
2021/04/17 03:27:47;;;;;;;18.83;11.38;;;2.80;99.90;;;;;;5030042;28;20116;-72
2021/04/17 03:30:15;;;;;;;20.35;11.95;;;2.80;99.90;;;;;;5029984;28;20099;-72
2021/04/17 03:32:41;;;;;;;19.15;11.60;;;2.80;99.90;;;;;;5028627;28;20029;-72
2021/04/17 03:35:09;;;;;;;20.50;11.90;;;2.80;99.90;;;;;;5030592;28;20414;-72
2021/04/17 03:37:36;;;;;;;20.30;11.95;;;2.70;99.90;;;;;;5030501;28;20078;-74
2021/04/17 03:40:05;;;;;;;20.13;11.90;;;2.80;99.90;;;;;;5029833;28;20036;-72
2021/04/17 03:42:30;;;;;;;19.48;12.07;;;2.70;99.90;;;;;;5029724;28;20367;-72
2021/04/17 03:44:56;;;;;;;20.77;12.10;;;2.80;99.90;;;;;;5028505;28;20024;-72
2021/04/17 03:47:22;;;;;;;21.48;12.93;;;2.80;99.90;;;;;;5029677;28;20029;-72
2021/04/17 03:49:47;;;;;;;23.67;12.85;;;2.80;99.90;;;;;;5029768;28;20548;-72
2021/04/17 03:52:13;;;;;;;20.38;12.40;;;2.80;99.90;;;;;;5030168;28;20053;-72
2021/04/17 03:54:39;;;;;;;19.83;11.48;;;2.80;99.90;;;;;;5029571;28;20119;-72
2021/04/17 03:57:05;;;;;;;19.77;11.75;;;2.80;99.90;;;;;;5028325;28;20061;-72
2021/04/17 03:59:31;;;;;;;19.27;11.43;;;2.80;99.90;;;;;;5028175;28;20422;-72
2021/04/17 04:01:56;;;;;;;19.60;11.55;;;2.80;99.90;;;;;;5028229;28;20028;-72
2021/04/17 04:04:22;;;;;;;18.38;11.52;;;2.80;99.90;;;;;;5028281;28;20116;-72
2021/04/17 04:06:48;;;;;;;19.70;12.25;;;2.90;99.90;;;;;;5028258;28;20021;-72
2021/04/17 04:09:13;;;;;;;22.63;12.77;;;2.80;99.90;;;;;;5029519;28;20112;-72
2021/04/17 04:11:39;;;;;;;18.88;12.02;;;2.90;99.90;;;;;;5029653;28;20526;-72
2021/04/17 04:14:05;;;;;;;20.48;12.18;;;2.80;99.90;;;;;;5029450;28;20022;-72
2021/04/17 04:16:30;;;;;;;21.98;12.57;;;2.80;99.90;;;;;;5028209;28;20026;-73
2021/04/17 04:18:56;;;;;;;20.50;12.30;;;2.80;99.90;;;;;;5027662;28;20021;-72
2021/04/17 04:21:21;;;;;;;19.13;11.65;;;2.80;99.90;;;;;;5028018;28;20025;-73
2021/04/17 04:23:47;;;;;;;19.88;12.10;;;2.90;99.90;;;;;;5029354;28;20479;-72
2021/04/17 04:26:12;;;;;;;19.63;12.13;;;2.90;99.90;;;;;;5029306;28;20363;-73
2021/04/17 04:28:38;;;;;;;18.48;12.02;;;2.90;99.90;;;;;;5029326;28;20029;-74
2021/04/17 04:31:04;;;;;;;20.63;12.85;;;2.80;99.90;;;;;;5029108;28;20033;-72
2021/04/17 04:33:29;;;;;;;18.95;12.55;;;2.80;99.90;;;;;;5029611;28;20029;-72
2021/04/17 04:35:55;;;;;;;20.35;12.38;;;2.80;99.90;;;;;;5027942;28;20044;-72
2021/04/17 04:38:21;;;;;;;21.13;13.68;;;2.80;99.90;;;;;;5029148;28;20160;-72
2021/04/17 04:40:47;;;;;;;19.38;11.80;;;2.70;99.90;;;;;;5027821;28;20025;-72
2021/04/17 04:43:13;;;;;;;23.10;12.85;;;2.80;99.90;;;;;;5027921;28;20025;-72
2021/04/17 04:45:39;;;;;;;20.45;12.18;;;2.80;99.90;;;;;;5027879;28;20032;-72
2021/04/17 04:48:08;;;;;;;25.15;14.55;;;2.80;99.90;;;;;;5029023;28;20506;-72
2021/04/17 04:50:34;;;;;;;21.52;13.48;;;2.80;99.90;;;;;;5027737;28;20033;-72
2021/04/17 04:52:59;;;;;;;21.02;12.85;;;2.90;99.90;;;;;;5029056;28;20084;-72
2021/04/17 04:55:25;;;;;;;23.48;13.60;;;2.90;99.90;;;;;;5029105;28;20427;-72
2021/04/17 04:57:50;;;;;;;22.75;12.77;;;3.00;99.90;;;;;;5027750;28;20570;-72
2021/04/17 05:00:17;;;;;;;24.77;14.25;;;3.00;99.90;;;;;;5028939;28;20044;-72
2021/04/17 05:02:42;;;;;;;23.10;13.52;;;3.00;99.90;;;;;;5027649;28;20060;-72
2021/04/17 05:05:08;;;;;;;24.15;13.18;;;3.00;99.90;;;;;;5028946;28;20064;-72
2021/04/17 05:07:34;;;;;;;23.17;13.57;;;3.10;99.90;;;;;;5028887;28;20510;-72
2021/04/17 05:10:00;;;;;;;25.52;14.85;;;3.10;99.90;;;;;;5028844;28;20113;-72
2021/04/17 05:12:25;;;;;;;23.80;13.10;;;3.20;99.90;;;;;;5027669;28;20056;-72
2021/04/17 05:14:51;;;;;;;23.85;13.73;;;3.30;99.90;;;;;;5028841;28;20075;-72
2021/04/17 05:17:16;;;;;;;21.83;13.70;;;3.30;99.90;;;;;;5027376;28;20133;-72
2021/04/17 05:19:42;;;;;;;25.40;13.70;;;3.30;99.90;;;;;;5028741;28;20030;-72
2021/04/17 05:22:08;;;;;;;24.73;14.07;;;3.30;99.90;;;;;;5028865;28;20028;-72
2021/04/17 05:24:33;;;;;;;25.40;13.77;;;3.40;99.90;;;;;;5028849;28;20375;-72
2021/04/17 05:26:59;;;;;;;23.08;14.65;;;3.30;99.90;;;;;;5028783;28;20034;-72
2021/04/17 05:29:25;;;;;;;24.55;15.40;;;3.40;99.90;;;;;;5028617;28;20443;-72
2021/04/17 05:31:50;;;;;;;25.08;14.20;;;3.40;99.90;;;;;;5032350;28;20031;-72
2021/04/17 05:34:16;;;;;;;23.55;14.85;;;3.40;99.90;;;;;;5032284;28;20025;-72
2021/04/17 05:36:42;;;;;;;25.20;14.60;;;3.50;99.90;;;;;;5030930;28;20080;-72
2021/04/17 05:39:07;;;;;;;28.23;15.60;;;3.60;99.90;;;;;;5032365;28;20026;-72
2021/04/17 05:41:33;;;;;;;23.33;14.60;;;3.60;99.90;;;;;;5031901;28;20025;-72
2021/04/17 05:43:58;;;;;;;24.88;14.63;;;3.70;99.90;;;;;;5032296;28;20030;-72
2021/04/17 05:46:24;;;;;;;23.88;14.43;;;3.80;99.90;;;;;;5032203;28;20025;-72
2021/04/17 05:48:50;;;;;;;26.02;14.50;;;3.90;99.90;;;;;;5031941;28;20398;-72
2021/04/17 05:51:15;;;;;;;24.73;13.63;;;4.00;99.90;;;;;;5031896;28;20440;-72
2021/04/17 05:53:41;;;;;;;22.85;14.40;;;4.10;99.90;;;;;;5031939;28;20030;-72
2021/04/17 05:56:08;;;;;;;24.55;14.02;;;4.30;99.90;;;;;;5030579;28;20402;-73
2021/04/17 05:58:34;;;;;;;26.88;15.65;;;4.30;99.90;;;;;;5031753;28;20021;-72
2021/04/17 06:00:59;;;;;;;28.30;16.00;;;4.30;99.90;;;;;;5030394;28;20029;-72
2021/04/17 06:03:27;;;;;;;26.80;14.60;;;4.40;99.90;;;;;;5032318;28;20333;-72
2021/04/17 06:05:53;;;;;;;26.63;14.43;;;4.30;99.90;;;;;;5031808;28;20394;-72
2021/04/17 06:08:18;;;;;;;29.38;16.02;;;4.30;99.90;;;;;;5030333;28;20116;-72
2021/04/17 06:10:44;;;;;;;26.73;15.27;;;4.40;99.90;;;;;;5030224;28;20376;-72
2021/04/17 06:13:10;;;;;;;24.02;15.30;;;4.40;99.90;;;;;;5030283;28;20027;-72
2021/04/17 06:15:35;;;;;;;23.35;14.50;;;4.40;99.90;;;;;;5031363;28;20497;-72
2021/04/17 06:18:01;;;;;;;27.92;16.02;;;4.50;99.90;;;;;;5030139;28;20021;-72
2021/04/17 06:20:26;;;;;;;26.23;15.05;;;4.60;99.90;;;;;;5030076;28;20037;-72
2021/04/17 06:22:52;;;;;;;28.80;16.83;;;4.60;99.90;;;;;;5031275;28;20024;-73
2021/04/17 06:25:17;;;;;;;26.15;14.88;;;4.60;99.90;;;;;;5030163;28;20029;-72
2021/04/17 06:27:43;;;;;;;26.25;15.38;;;4.70;99.90;;;;;;5029976;28;20026;-72
2021/04/17 06:30:09;;;;;;;26.98;15.60;;;4.70;99.90;;;;;;5031152;28;20502;-72
2021/04/17 06:32:35;;;;;;;26.90;15.23;;;4.90;99.90;;;;;;5055255;22;20046;-73
2021/04/17 06:35:00;;;;;;;25.27;15.70;;;5.00;99.90;;;;;;5031268;28;20028;-73
2021/04/17 06:37:26;;;;;;;30.27;16.52;;;5.20;99.90;;;;;;5031350;28;20034;-74
2021/04/17 06:39:51;;;;;;;26.05;15.65;;;5.20;99.90;;;;;;5031848;28;20048;-72
2021/04/17 06:42:20;;;;;;;28.10;16.73;;;5.20;99.90;;;;;;5030460;28;20032;-73
2021/04/17 06:44:46;;;;;;;28.80;16.60;;;5.10;99.90;;;;;;5030347;28;20021;-73
2021/04/17 06:47:15;;;;;;;28.67;16.65;;;5.20;99.90;;;;;;5032163;28;20037;-73
2021/04/17 06:49:42;;;;;;;27.17;15.80;;;5.30;99.90;;;;;;5031060;28;20475;-72
2021/04/17 06:52:10;;;;;;;26.60;15.80;;;5.30;99.90;;;;;;5029641;28;20033;-72
2021/04/17 06:54:37;;;;;;;29.25;17.20;;;5.30;99.90;;;;;;5030829;28;20024;-72
2021/04/17 06:57:03;;;;;;;28.52;15.90;;;5.20;99.90;;;;;;5030825;28;20079;-72
2021/04/17 06:59:32;;;;;;;29.23;16.90;;;5.20;99.90;;;;;;5030699;28;20048;-71
2021/04/17 07:01:58;;;;;;;28.67;16.30;;;5.30;99.90;;;;;;5030601;28;20052;-72
2021/04/17 07:04:25;;;;;;;29.75;17.92;;;5.40;99.90;;;;;;5030941;28;20072;-72
2021/04/17 07:06:50;;;;;;;26.42;16.20;;;5.50;99.90;;;;;;5029262;28;20022;-73
2021/04/17 07:09:16;;;;;;;24.10;15.38;;;5.60;99.90;;;;;;5030493;28;20029;-73
2021/04/17 07:11:42;;;;;;;31.65;17.63;;;5.80;99.90;;;;;;5030570;28;20017;-73
2021/04/17 07:14:15;;;;;;;27.60;15.93;;;5.80;99.90;;;;;;5030433;28;20022;-74
2021/04/17 07:17:04;;;;;;;27.23;15.85;;;6.00;99.90;;;;;;5030326;28;20030;-74
2021/04/17 07:19:54;;;;;;;25.70;15.18;;;6.00;99.90;;;;;;5029277;28;20036;-75
2021/04/17 07:22:25;;;;;;;27.90;15.85;;;6.10;99.90;;;;;;5029072;28;20029;-74
2021/04/17 07:24:56;;;;;;;25.48;15.95;;;6.20;99.90;;;;;;5030394;28;20017;-74
2021/04/17 07:27:37;;;;;;;23.48;15.00;;;6.40;99.90;;;;;;5030421;28;20021;-74
2021/04/17 07:30:14;;;;;;;26.73;15.82;;;6.50;99.90;;;;;;5028934;28;20478;-74
2021/04/17 07:32:41;;;;;;;24.08;15.32;;;6.50;99.90;;;;;;5028972;28;20037;-73
2021/04/17 07:35:11;;;;;;;25.30;15.30;;;6.50;99.90;;;;;;5030282;28;20029;-74
2021/04/17 07:37:38;;;;;;;24.70;14.38;;;6.60;99.90;;;;;;5030309;28;20487;-74
2021/04/17 07:40:16;;;;;;;25.02;16.17;;;6.70;99.90;;;;;;5030249;28;20022;-73
2021/04/17 07:42:46;;;;;;;27.55;16.60;;;6.90;99.90;;;;;;5029937;28;20021;-74
2021/04/17 07:45:24;;;;;;;27.20;16.52;;;6.80;99.90;;;;;;5028761;28;20067;-74
2021/04/17 07:47:52;;;;;;;24.27;15.60;;;6.80;99.90;;;;;;5029951;28;20056;-74
2021/04/17 07:50:18;;;;;;;23.23;15.70;;;7.00;99.90;;;;;;5028593;28;20115;-73
2021/04/17 07:52:45;;;;;;;24.73;16.05;;;7.10;99.90;;;;;;5028051;28;20509;-73
2021/04/17 07:55:13;;;;;;;28.65;16.88;;;7.20;99.90;;;;;;5029989;28;20040;-73
2021/04/17 07:57:44;;;;;;;23.23;14.77;;;7.20;99.90;;;;;;5028931;28;20509;-73
2021/04/17 08:00:15;;;;;;;24.02;14.90;;;7.30;99.90;;;;;;5030461;28;20064;-73
2021/04/17 08:02:43;;;;;;;22.40;14.25;;;7.60;99.90;;;;;;5029205;28;20028;-74
2021/04/17 08:05:10;;;;;;;23.95;15.20;;;7.70;99.90;;;;;;5028722;28;20367;-74
2021/04/17 08:07:36;;;;;;;24.08;14.80;;;7.80;99.90;;;;;;5028964;28;20021;-74
2021/04/17 08:10:03;;;;;;;23.20;14.18;;;7.80;99.90;;;;;;5030589;28;20035;-74
2021/04/17 08:12:29;;;;;;;23.65;14.00;;;8.00;99.90;;;;;;5029923;28;20371;-74
2021/04/17 08:14:55;;;;;;;21.02;13.25;;;8.20;99.90;;;;;;5028637;28;20031;-75
2021/04/17 08:17:21;;;;;;;21.83;14.05;;;8.50;99.90;;;;;;5028781;28;20031;-74
2021/04/17 08:19:47;;;;;;;21.58;13.93;;;8.60;99.90;;;;;;5030678;28;20048;-74
2021/04/17 08:22:15;;;;;;;20.40;13.05;;;8.70;99.90;;;;;;5029423;28;20546;-74
2021/04/17 08:24:41;;;;;;;19.98;12.63;;;9.00;99.90;;;;;;5031511;28;20021;-74
2021/04/17 08:27:07;;;;;;;20.20;13.40;;;9.10;99.90;;;;;;5033195;28;20581;-74
2021/04/17 08:29:53;;;;;;;19.38;12.25;;;9.10;99.90;;;;;;5029207;28;20083;-74
2021/04/17 08:32:29;;;;;;;20.55;13.10;;;9.00;99.90;;;;;;5029942;28;20026;-74
2021/04/17 08:35:11;;;;;;;17.85;12.65;;;9.30;99.90;;;;;;5028543;28;20043;-74
2021/04/17 08:37:52;;;;;;;19.40;13.02;;;9.40;99.90;;;;;;5028407;28;20036;-74
2021/04/17 08:40:36;;;;;;;21.42;13.43;;;9.50;99.90;;;;;;5028534;28;20030;-74
2021/04/17 08:43:15;;;;;;;21.20;12.88;;;9.40;99.90;;;;;;5029309;28;20104;-75
2021/04/17 08:46:00;;;;;;;18.30;12.43;;;9.20;99.90;;;;;;5029547;28;20028;-74
2021/04/17 08:48:45;;;;;;;16.17;11.38;;;9.00;99.90;;;;;;5029567;28;20028;-75
2021/04/17 08:51:38;;;;;;;16.65;11.80;;;9.00;99.90;;;;;;5027929;28;20025;-74
2021/04/17 08:54:04;;;;;;;18.48;12.27;;;8.90;99.90;;;;;;5029854;28;20030;-76
2021/04/17 08:56:48;;;;;;;17.27;11.15;;;8.80;99.90;;;;;;5029873;28;20028;-75
2021/04/17 08:59:22;;;;;;;17.05;11.00;;;8.90;99.90;;;;;;5029215;28;20139;-73
2021/04/17 09:01:48;;;;;;;17.77;11.77;;;9.10;99.90;;;;;;5029155;28;20037;-73
2021/04/17 09:04:14;;;;;;;15.15;9.77;;;9.50;99.90;;;;;;5031022;28;20036;-73
2021/04/17 09:06:42;;;;;;;15.02;10.25;;;9.70;99.90;;;;;;5031890;28;20475;-74
2021/04/17 09:09:20;;;;;;;15.35;8.88;;;9.90;99.90;;;;;;5032885;28;20022;-74
2021/04/17 09:11:46;;;;;;;18.33;10.65;;;10.10;99.90;;;;;;5033072;28;20033;-73
2021/04/17 09:14:28;;;;;;;13.70;9.18;;;10.20;99.90;;;;;;5033002;28;20026;-73
2021/04/17 09:16:55;;;;;;;12.77;8.88;;;10.20;99.90;;;;;;5033317;28;20025;-74
2021/04/17 09:19:39;;;;;;;14.23;9.05;;;10.50;99.90;;;;;;5033175;28;20420;-73
2021/04/17 09:22:24;;;;;;;15.20;9.43;;;10.60;99.90;;;;;;5034384;28;20028;-74
2021/04/17 09:25:03;;;;;;;17.80;9.35;;;10.50;99.90;;;;;;5033367;28;20458;-74
2021/04/17 09:27:31;;;;;;;16.27;10.85;;;10.20;99.90;;;;;;5034934;28;20119;-74
2021/04/17 09:30:03;;;;;;;17.20;10.55;;;10.10;99.90;;;;;;5032894;28;20020;-74
2021/04/17 09:32:37;;;;;;;12.82;9.48;;;10.10;99.90;;;;;;5032728;28;20095;-74
2021/04/17 09:35:23;;;;;;;13.48;9.07;;;9.80;99.90;;;;;;5032629;28;20027;-75
2021/04/17 09:38:05;;;;;;;13.65;9.30;;;9.70;99.90;;;;;;5032594;28;20028;-75
2021/04/17 09:40:41;;;;;;;11.88;7.53;;;9.60;99.90;;;;;;5031032;28;20088;-74
2021/04/17 09:43:23;;;;;;;13.77;10.23;;;9.40;99.90;;;;;;5032461;28;20100;-75
2021/04/17 09:45:51;;;;;;;13.03;9.40;;;9.20;99.90;;;;;;5032638;28;20387;-75
2021/04/17 09:48:18;;;;;;;15.73;10.35;;;8.90;99.90;;;;;;5032295;28;20446;-74
2021/04/17 09:50:44;;;;;;;14.25;10.10;;;8.80;99.90;;;;;;5032259;28;20099;-74
2021/04/17 09:53:11;;;;;;;14.05;9.90;;;8.90;99.90;;;;;;5033802;28;20486;-74
2021/04/17 09:55:58;;;;;;;13.38;9.55;;;9.00;99.90;;;;;;5031232;28;20037;-74
2021/04/17 09:58:27;;;;;;;14.57;9.77;;;9.10;99.90;;;;;;5032634;28;20506;-74
2021/04/17 10:00:53;;;;;;;15.95;10.50;;;9.20;99.90;;;;;;5031892;28;20390;-75
2021/04/17 10:03:50;;;;;;;13.80;10.10;;;9.60;99.90;;;;;;5030798;28;20021;-75
2021/04/17 10:06:26;;;;;;;15.57;9.70;;;10.10;99.90;;;;;;5031127;28;20045;-74
2021/04/17 10:08:52;;;;;;;15.70;9.63;;;10.50;99.90;;;;;;5031865;28;20022;-74
2021/04/17 10:11:19;;;;;;;14.98;9.88;;;10.90;99.90;;;;;;5031719;28;20487;-74
2021/04/17 10:13:46;;;;;;;12.10;7.95;;;11.10;99.90;;;;;;5031723;28;20043;-74
2021/04/17 10:16:14;;;;;;;12.23;8.68;;;11.50;99.20;;;;;;5029869;28;20033;-74
2021/04/17 10:18:43;;;;;;;13.13;9.00;;;12.30;95.00;;;;;;5031945;28;20374;-74
2021/04/17 10:21:10;;;;;;;13.48;8.13;;;12.80;91.80;;;;;;5031534;28;20479;-74
2021/04/17 10:23:36;;;;;;;13.35;8.27;;;13.20;89.40;;;;;;5030370;28;20124;-74
2021/04/17 10:26:07;;;;;;;11.80;8.27;;;13.20;87.20;;;;;;5031740;28;20053;-74
2021/04/17 10:28:33;;;;;;;12.90;9.25;;;13.70;84.10;;;;;;5030655;28;20033;-74
2021/04/17 10:31:13;;;;;;;10.63;7.88;;;13.40;80.60;;;;;;5031765;28;20111;-75
2021/04/17 10:33:43;;;;;;;12.13;8.10;;;13.70;81.60;;;;;;5030418;28;20060;-73
2021/04/17 10:36:16;;;;;;;14.68;8.02;;;14.30;76.40;;;;;;5030254;28;20021;-73
2021/04/17 10:38:41;;;;;;;;;;;14.50;73.80;;;;;;5032228;28;20021;-74
2021/04/17 10:41:08;;;;;;;10.68;7.97;;;14.60;74.10;;;;;;5029848;28;20286;-74
2021/04/17 10:43:33;;;;;;;14.45;9.75;;;14.50;74.60;;;;;;5031614;28;20025;-73
2021/04/17 10:46:04;;;;;;;14.13;9.65;;;14.40;73.00;;;;;;5031453;28;20109;-74
2021/04/17 10:48:43;;;;;;;12.00;8.38;;;14.10;73.40;;;;;;5031714;28;20021;-74
2021/04/17 10:51:12;;;;;;;11.52;9.02;;;13.90;74.30;;;;;;5031240;28;20114;-75
2021/04/17 10:53:40;;;;;;;13.93;9.90;;;13.70;74.30;;;;;;5030372;28;20035;-74
2021/04/17 10:56:10;;;;;;;12.90;9.75;;;13.40;75.10;;;;;;5031359;28;20033;-74
2021/04/17 10:58:37;;;;;;;17.98;10.02;;;12.80;76.90;;;;;;5030843;28;20030;-74
2021/04/17 11:01:16;;;;;;;13.93;10.73;;;12.20;81.70;;;;;;5030991;28;20500;-74
2021/04/17 11:03:53;;;;;;;15.30;10.25;;;11.80;83.50;;;;;;5031049;28;20036;-74
2021/04/17 11:06:24;;;;;;;14.38;9.93;;;11.50;86.40;;;;;;5031085;28;20032;-74
2021/04/17 11:09:03;;;;;;;18.67;11.68;;;11.40;88.40;;;;;;5029786;28;20394;-74
2021/04/17 11:11:29;;;;;;;15.85;11.07;;;11.40;87.80;;;;;;5029478;28;20029;-74
2021/04/17 11:14:00;;;;;;;18.45;12.02;;;11.50;88.80;;;;;;5029461;28;20037;-74
2021/04/17 11:16:45;;;;;;;18.35;12.02;;;11.30;87.30;;;;;;5029273;28;20505;-73
2021/04/17 11:19:33;;;;;;;16.90;12.05;;;10.90;90.50;;;;;;5030350;28;20035;-73
2021/04/17 11:22:10;;;;;;;17.67;11.05;;;10.90;91.30;;;;;;5029317;28;20104;-73
2021/04/17 11:24:37;;;;;;;16.90;11.85;;;10.90;92.30;;;;;;5029217;28;20028;-73
2021/04/17 11:27:03;;;;;;;17.25;11.50;;;11.10;92.70;;;;;;5030094;28;20022;-73
2021/04/17 11:29:29;;;;;;;17.10;11.57;;;11.30;92.10;;;;;;5030056;28;20030;-74
2021/04/17 11:31:54;;;;;;;16.00;10.63;;;11.10;91.90;;;;;;5030524;28;20534;-74
2021/04/17 11:34:20;;;;;;;17.60;11.23;;;11.20;92.00;;;;;;5030109;28;20026;-73
2021/04/17 11:36:46;;;;;;;16.42;10.07;;;11.40;91.60;;;;;;5028792;28;20025;-74
2021/04/17 11:39:12;;;;;;;14.13;9.20;;;11.60;90.70;;;;;;5028903;28;20059;-73
2021/04/17 11:41:37;;;;;;;15.40;10.10;;;11.60;88.30;;;;;;5029030;28;20021;-74
2021/04/17 11:44:03;;;;;;;14.25;9.93;;;11.90;87.70;;;;;;5029246;28;20125;-73
2021/04/17 11:46:29;;;;;;;15.50;10.07;;;12.20;87.10;;;;;;5028962;28;20033;-73
2021/04/17 11:48:55;;;;;;;15.55;10.57;;;12.40;86.00;;;;;;5030401;28;20025;-74
2021/04/17 11:51:21;;;;;;;17.60;10.48;;;12.70;84.70;;;;;;5030466;28;20075;-73
2021/04/17 11:53:47;;;;;;;16.13;10.80;;;12.80;81.70;;;;;;5029000;28;20116;-74
2021/04/17 11:56:13;;;;;;;15.35;10.57;;;12.80;80.80;;;;;;5030636;28;20030;-73
2021/04/17 11:58:39;;;;;;;15.65;11.00;;;12.70;82.90;;;;;;5028914;28;20034;-75
2021/04/17 12:01:05;;;;;;;19.63;11.13;;;12.90;82.70;;;;;;5029065;28;20143;-75
2021/04/17 12:03:31;;;;;;;14.60;10.32;;;13.30;80.60;;;;;;5029904;28;20111;-75
2021/04/17 12:05:57;;;;;;;14.52;10.75;;;13.90;77.70;;;;;;5030698;28;20042;-73
2021/04/17 12:08:27;;;;;;;14.45;10.25;;;14.50;74.70;;;;;;5035797;28;20030;-75
2021/04/17 12:10:53;;;;;;;13.23;10.23;;;15.10;72.90;;;;;;5033998;28;20118;-75
2021/04/17 12:13:19;;;;;;;15.27;11.18;;;15.30;71.00;;;;;;5037154;28;20029;-74
2021/04/17 12:15:47;;;;;;;14.60;10.23;;;15.20;69.20;;;;;;5035044;28;20033;-74
2021/04/17 12:18:14;;;;;;;16.23;11.77;;;15.30;69.60;;;;;;5030507;28;20398;-73
2021/04/17 12:20:40;;;;;;;16.38;12.07;;;15.20;69.00;;;;;;5028598;28;20099;-73
2021/04/17 12:23:06;;;;;;;15.75;12.15;;;14.80;68.80;;;;;;5031104;28;20072;-74
2021/04/17 12:25:32;;;;;;;18.15;12.20;;;14.40;70.10;;;;;;5030185;28;20391;-75
2021/04/17 12:27:58;;;;;;;16.70;11.82;;;13.90;72.20;;;;;;5027648;28;20029;-74
2021/04/17 12:30:24;;;;;;;20.98;12.63;;;13.50;73.80;;;;;;5029490;28;20029;-73
2021/04/17 12:32:51;;;;;;;18.88;12.25;;;13.30;75.20;;;;;;5055771;22;20188;-72
2021/04/17 12:35:17;;;;;;;17.42;12.23;;;13.10;75.80;;;;;;5027878;28;20022;-72
2021/04/17 12:37:43;;;;;;;16.77;12.43;;;13.10;77.30;;;;;;5027860;28;20107;-72
2021/04/17 12:40:10;;;;;;;19.92;12.50;;;13.10;75.30;;;;;;5032183;28;20119;-72
2021/04/17 12:42:36;;;;;;;17.98;12.80;;;12.90;76.90;;;;;;5033081;28;20026;-72
2021/04/17 12:45:04;;;;;;;17.05;12.07;;;12.90;77.70;;;;;;5031784;28;20128;-72